Time;durP1;ratioP1;P1;durP2;ratioP2;P2;SDS_P1;SDS_P2;PMS_P1;PMS_P2;Temp;Humidity;BMP_temperature;BMP_pressure;BME280_temperature;BME280_humidity;BME280_pressure;Samples;Min_cycle;Max_cycle;Signal;HPM_P1;HPM_P2
2021/11/18 00:00:13;;;;;;;3.92;2.58;;;17.00;61.70;;;;;;5055721;28;20225;-63
2021/11/18 00:02:39;;;;;;;4.68;2.60;;;17.00;61.70;;;;;;5049540;28;20259;-64
2021/11/18 00:05:06;;;;;;;4.20;2.35;;;17.00;61.60;;;;;;5052045;28;20250;-62
2021/11/18 00:07:32;;;;;;;4.78;2.70;;;16.90;61.70;;;;;;5051624;28;20237;-63
2021/11/18 00:09:57;;;;;;;4.18;2.50;;;17.00;61.70;;;;;;5051444;28;20578;-62
2021/11/18 00:12:23;;;;;;;2.83;2.30;;;17.00;61.60;;;;;;5051499;28;20237;-63
2021/11/18 00:14:48;;;;;;;3.40;2.25;;;17.00;61.60;;;;;;5051492;28;20191;-64
2021/11/18 00:17:14;;;;;;;3.75;2.63;;;16.90;61.60;;;;;;5050757;28;20181;-63
2021/11/18 00:19:39;;;;;;;4.40;2.33;;;16.90;62.40;;;;;;5051166;28;20579;-65
2021/11/18 00:22:05;;;;;;;3.15;2.40;;;16.90;61.60;;;;;;5051798;28;20692;-63
2021/11/18 00:24:30;;;;;;;5.15;2.60;;;16.90;61.60;;;;;;5050547;28;20236;-64
2021/11/18 00:26:56;;;;;;;2.30;2.10;;;16.90;61.60;;;;;;5051598;28;20211;-65
2021/11/18 00:29:22;;;;;;;3.78;2.40;;;16.90;61.60;;;;;;5051729;28;20167;-63
2021/11/18 00:31:47;;;;;;;4.18;2.38;;;16.90;61.60;;;;;;5050076;28;20183;-65
2021/11/18 00:34:13;;;;;;;3.78;2.30;;;16.90;61.60;;;;;;5051711;28;20174;-64
2021/11/18 00:36:39;;;;;;;2.80;2.30;;;16.90;61.60;;;;;;5055040;28;20179;-64
2021/11/18 00:39:05;;;;;;;2.85;2.30;;;16.90;61.50;;;;;;5054649;28;20637;-63
2021/11/18 00:41:31;;;;;;;5.22;2.30;;;16.80;61.40;;;;;;5055427;28;20179;-63
2021/11/18 00:43:57;;;;;;;4.22;2.70;;;16.80;61.40;;;;;;5054913;28;20602;-65
2021/11/18 00:46:22;;;;;;;2.80;2.30;;;16.90;61.50;;;;;;5053289;28;20206;-62
2021/11/18 00:48:48;;;;;;;3.22;2.72;;;16.90;61.60;;;;;;5055199;28;20875;-63
2021/11/18 00:51:15;;;;;;;3.97;2.80;;;16.80;61.50;;;;;;5055141;28;20532;-64
2021/11/18 00:53:55;;;;;;;3.42;2.40;;;16.80;61.60;;;;;;5054321;28;20183;-65
2021/11/18 00:56:21;;;;;;;3.65;2.35;;;16.80;61.40;;;;;;5055026;28;20257;-65
2021/11/18 00:58:48;;;;;;;3.72;2.40;;;16.80;61.50;;;;;;5058766;28;20255;-65
2021/11/18 01:01:15;;;;;;;2.70;2.08;;;16.80;61.40;;;;;;5074910;28;20178;-65
2021/11/18 01:03:40;;;;;;;5.00;2.40;;;16.80;61.40;;;;;;5074467;28;20608;-64
2021/11/18 01:06:06;;;;;;;2.65;2.05;;;16.80;61.50;;;;;;5074402;28;20174;-62
2021/11/18 01:08:31;;;;;;;3.03;2.28;;;16.70;61.40;;;;;;5074608;28;20178;-62
2021/11/18 01:11:04;;;;;;;3.20;2.42;;;16.70;61.40;;;;;;5074781;28;20535;-62
2021/11/18 01:13:30;;;;;;;3.63;2.35;;;16.70;61.50;;;;;;5074039;28;20178;-64
2021/11/18 01:15:56;;;;;;;2.83;2.50;;;16.70;61.30;;;;;;5074556;28;20186;-64
2021/11/18 01:18:21;;;;;;;3.47;2.40;;;16.80;61.40;;;;;;5074796;28;20182;-65
2021/11/18 01:20:47;;;;;;;3.42;2.38;;;16.70;61.30;;;;;;5073946;28;20659;-64
2021/11/18 01:23:15;;;;;;;3.70;2.42;;;16.70;61.40;;;;;;5074550;28;20174;-64
2021/11/18 01:25:41;;;;;;;3.65;2.60;;;16.70;61.40;;;;;;5074181;28;20182;-65
2021/11/18 01:28:07;;;;;;;4.05;2.70;;;16.70;61.40;;;;;;5073605;28;20206;-63
2021/11/18 01:30:33;;;;;;;4.68;2.20;;;16.70;61.30;;;;;;5074264;28;20174;-64
2021/11/18 01:32:58;;;;;;;4.65;2.58;;;16.70;61.30;;;;;;5074444;28;20174;-64
2021/11/18 01:35:24;;;;;;;3.85;2.42;;;16.70;61.30;;;;;;5073595;28;20181;-63
2021/11/18 01:37:49;;;;;;;3.42;2.20;;;16.70;61.30;;;;;;5074154;28;20174;-64
2021/11/18 01:40:19;;;;;;;4.07;2.30;;;16.60;61.30;;;;;;5074313;28;20285;-64
2021/11/18 01:42:45;;;;;;;3.17;2.50;;;16.60;61.30;;;;;;5073089;28;20277;-64
2021/11/18 01:45:12;;;;;;;2.60;2.40;;;16.60;61.30;;;;;;5072621;28;20830;-62
2021/11/18 01:47:38;;;;;;;2.55;1.90;;;16.60;61.40;;;;;;5072675;28;20680;-63
2021/11/18 01:50:05;;;;;;;3.33;2.28;;;16.60;61.30;;;;;;5073301;28;20186;-62
2021/11/18 01:52:30;;;;;;;4.00;2.33;;;16.60;61.20;;;;;;5073793;28;20183;-63
2021/11/18 01:54:58;;;;;;;3.03;2.40;;;16.60;61.20;;;;;;5073846;28;20610;-64
2021/11/18 01:57:27;;;;;;;2.65;2.35;;;16.60;61.20;;;;;;5073164;28;20663;-65
2021/11/18 01:59:53;;;;;;;3.67;1.98;;;16.60;61.30;;;;;;5059835;28;20236;-65
2021/11/18 02:02:19;;;;;;;3.47;2.28;;;16.60;61.30;;;;;;5051968;28;20274;-64
2021/11/18 02:04:53;;;;;;;4.28;2.33;;;16.60;61.30;;;;;;5053714;28;20183;-64
2021/11/18 02:07:18;;;;;;;3.80;2.22;;;16.60;61.30;;;;;;5053849;28;20210;-63
2021/11/18 02:09:45;;;;;;;2.97;2.13;;;16.60;61.20;;;;;;5052679;28;20175;-63
2021/11/18 02:12:16;;;;;;;4.55;2.30;;;16.60;61.20;;;;;;5053950;28;20258;-62
2021/11/18 02:14:42;;;;;;;3.50;2.40;;;16.50;61.30;;;;;;5053409;28;20198;-63
2021/11/18 02:17:09;;;;;;;3.85;2.20;;;16.50;61.20;;;;;;5053031;28;20577;-64
2021/11/18 02:19:40;;;;;;;6.30;2.38;;;16.60;61.30;;;;;;5053397;28;20262;-64
2021/11/18 02:22:05;;;;;;;2.42;1.92;;;16.50;61.20;;;;;;5053648;28;20252;-63
2021/11/18 02:24:33;;;;;;;3.75;2.25;;;16.50;61.10;;;;;;5052272;28;20638;-64
2021/11/18 02:26:59;;;;;;;2.95;2.20;;;16.50;61.10;;;;;;5053322;28;20673;-63
2021/11/18 02:29:25;;;;;;;4.15;2.53;;;16.50;61.10;;;;;;5053474;28;20240;-64
2021/11/18 02:31:59;;;;;;;3.80;2.40;;;16.50;61.20;;;;;;5052407;28;20182;-63
2021/11/18 02:34:42;;;;;;;3.00;2.05;;;16.50;61.20;;;;;;5053229;28;20186;-64
2021/11/18 02:37:07;;;;;;;4.13;2.00;;;16.50;61.20;;;;;;5052052;28;20179;-64
2021/11/18 02:39:34;;;;;;;2.67;2.20;;;16.50;61.20;;;;;;5052405;28;20170;-65
2021/11/18 02:41:59;;;;;;;3.03;2.28;;;16.50;61.20;;;;;;5053063;28;20179;-64
2021/11/18 02:44:28;;;;;;;2.50;2.08;;;16.50;61.20;;;;;;5052391;28;20215;-64
2021/11/18 02:46:53;;;;;;;2.53;2.10;;;16.50;61.20;;;;;;5053126;28;20213;-63
2021/11/18 02:49:19;;;;;;;4.32;2.60;;;16.40;61.10;;;;;;5053032;28;20179;-63
2021/11/18 02:51:44;;;;;;;3.30;2.10;;;16.40;61.10;;;;;;5051930;28;20203;-64
2021/11/18 02:54:10;;;;;;;4.18;2.42;;;16.40;61.10;;;;;;5052689;28;20634;-64
2021/11/18 02:56:35;;;;;;;3.33;2.47;;;16.40;61.00;;;;;;5052687;28;20183;-64
2021/11/18 02:59:01;;;;;;;3.35;2.35;;;16.40;61.00;;;;;;5052041;28;20186;-65
2021/11/18 03:01:31;;;;;;;2.47;2.03;;;16.40;61.10;;;;;;5052835;28;20175;-64
2021/11/18 03:03:56;;;;;;;2.65;2.40;;;16.40;61.10;;;;;;5052700;28;20621;-63
2021/11/18 03:06:22;;;;;;;3.33;2.35;;;16.40;61.10;;;;;;5051924;28;20210;-62
2021/11/18 03:08:48;;;;;;;2.30;1.95;;;16.40;61.10;;;;;;5052214;28;20174;-62
2021/11/18 03:11:14;;;;;;;3.38;2.17;;;16.40;61.10;;;;;;5052684;28;20190;-62
2021/11/18 03:13:39;;;;;;;2.10;1.85;;;16.40;61.10;;;;;;5051281;28;20266;-63
2021/11/18 03:16:05;;;;;;;2.72;2.03;;;16.40;61.10;;;;;;5052440;28;20258;-63
2021/11/18 03:18:31;;;;;;;3.33;2.28;;;16.40;61.10;;;;;;5052025;28;20170;-64
2021/11/18 03:20:57;;;;;;;2.63;2.08;;;16.30;61.00;;;;;;5051697;28;20237;-64
2021/11/18 03:23:23;;;;;;;2.70;2.25;;;16.30;61.00;;;;;;5051283;28;20178;-63
2021/11/18 03:25:49;;;;;;;3.28;2.53;;;16.40;61.10;;;;;;5052191;28;20171;-64
2021/11/18 03:28:15;;;;;;;3.42;2.30;;;16.40;61.10;;;;;;5050248;28;20242;-62
2021/11/18 03:30:42;;;;;;;2.65;1.80;;;16.30;61.00;;;;;;5052031;28;20186;-62
2021/11/18 03:33:11;;;;;;;2.35;2.15;;;16.30;61.00;;;;;;5051912;28;20174;-62
2021/11/18 03:35:36;;;;;;;2.42;2.13;;;16.40;61.10;;;;;;5051198;28;20768;-64
2021/11/18 03:38:02;;;;;;;2.70;2.45;;;16.30;61.00;;;;;;5052321;28;20278;-64
2021/11/18 03:40:27;;;;;;;3.25;2.30;;;16.30;61.00;;;;;;5052025;28;20220;-64
2021/11/18 03:42:53;;;;;;;3.05;1.98;;;16.30;61.10;;;;;;5051193;28;20264;-64
2021/11/18 03:45:19;;;;;;;2.70;2.20;;;16.30;61.00;;;;;;5051845;28;20305;-64
2021/11/18 03:47:45;;;;;;;2.25;2.03;;;16.30;61.00;;;;;;5050864;28;20203;-64
2021/11/18 03:50:10;;;;;;;4.55;2.40;;;16.30;61.10;;;;;;5052094;28;20170;-63
2021/11/18 03:52:36;;;;;;;3.13;2.20;;;16.30;61.00;;;;;;5051506;28;20179;-63
2021/11/18 03:55:02;;;;;;;3.55;1.83;;;16.30;61.00;;;;;;5051280;28;20278;-65
2021/11/18 03:57:27;;;;;;;3.50;2.33;;;16.30;61.00;;;;;;5051970;28;20277;-65
2021/11/18 03:59:53;;;;;;;3.80;2.45;;;16.30;61.00;;;;;;5051349;28;20217;-65
2021/11/18 04:02:18;;;;;;;3.88;2.28;;;16.30;61.00;;;;;;5051187;28;20178;-64
2021/11/18 04:04:50;;;;;;;2.72;2.08;;;16.30;61.00;;;;;;5051281;28;20230;-64
2021/11/18 04:07:16;;;;;;;3.28;2.08;;;16.30;61.00;;;;;;5051784;28;20246;-63
2021/11/18 04:09:42;;;;;;;2.50;2.15;;;16.30;60.90;;;;;;5050365;28;20183;-63
2021/11/18 04:12:08;;;;;;;4.65;2.40;;;16.20;60.90;;;;;;5051939;28;20182;-63
2021/11/18 04:14:34;;;;;;;3.33;2.30;;;16.30;61.00;;;;;;5051394;28;20203;-63
2021/11/18 04:17:00;;;;;;;3.70;2.25;;;16.20;61.00;;;;;;5051042;28;20187;-64
2021/11/18 04:19:25;;;;;;;3.50;2.30;;;16.20;61.00;;;;;;5051673;28;20174;-64
2021/11/18 04:21:51;;;;;;;2.58;2.20;;;16.20;61.00;;;;;;5051368;28;20175;-63
2021/11/18 04:24:19;;;;;;;2.97;2.03;;;16.20;61.00;;;;;;5050862;28;20182;-64
2021/11/18 04:26:45;;;;;;;3.17;2.35;;;16.20;61.00;;;;;;5051068;28;20528;-63
2021/11/18 04:29:11;;;;;;;3.50;2.10;;;16.20;60.90;;;;;;5051464;28;20179;-63
2021/11/18 04:31:37;;;;;;;2.97;2.38;;;16.20;60.90;;;;;;5050381;28;20179;-64
2021/11/18 04:34:02;;;;;;;2.78;1.98;;;16.20;60.90;;;;;;5051583;28;20181;-63
2021/11/18 04:36:28;;;;;;;3.65;2.25;;;16.20;60.90;;;;;;5051612;28;20229;-63
2021/11/18 04:38:54;;;;;;;3.85;2.20;;;16.20;60.90;;;;;;5050785;28;20557;-64
2021/11/18 04:41:23;;;;;;;3.92;2.33;;;16.20;60.90;;;;;;5051614;28;20178;-64
2021/11/18 04:43:49;;;;;;;3.08;2.63;;;16.20;61.00;;;;;;5051045;28;20175;-65
2021/11/18 04:46:15;;;;;;;2.97;2.22;;;16.10;60.90;;;;;;5050785;28;20219;-64
2021/11/18 04:48:40;;;;;;;4.65;2.33;;;16.20;61.00;;;;;;5051328;28;20199;-63
2021/11/18 04:51:07;;;;;;;2.75;2.00;;;16.20;60.90;;;;;;5050681;28;20172;-63
2021/11/18 04:53:32;;;;;;;3.83;2.50;;;16.10;60.90;;;;;;5051132;28;20179;-65
2021/11/18 04:55:58;;;;;;;2.53;2.13;;;16.10;60.90;;;;;;5051395;28;20270;-66
2021/11/18 04:58:23;;;;;;;4.65;2.70;;;16.10;60.90;;;;;;5050643;28;20213;-65
2021/11/18 05:00:52;;;;;;;3.22;2.47;;;16.10;61.00;;;;;;5050779;28;20179;-65
2021/11/18 05:03:17;;;;;;;2.67;2.42;;;16.10;60.90;;;;;;5051545;28;20179;-64
2021/11/18 05:05:43;;;;;;;2.50;2.13;;;16.10;61.00;;;;;;5049136;28;20182;-64
2021/11/18 05:08:08;;;;;;;2.70;2.10;;;16.10;60.90;;;;;;5051253;28;20593;-63
2021/11/18 05:10:34;;;;;;;4.90;2.70;;;16.10;61.00;;;;;;5050862;28;20184;-64
2021/11/18 05:12:59;;;;;;;4.13;2.33;;;16.10;61.00;;;;;;5050879;28;20182;-65
2021/11/18 05:15:29;;;;;;;2.45;1.92;;;16.10;61.00;;;;;;5051384;28;20171;-65
2021/11/18 05:17:55;;;;;;;3.20;2.40;;;16.10;61.10;;;;;;5051539;28;20183;-66
2021/11/18 05:20:22;;;;;;;3.83;2.45;;;16.10;61.80;;;;;;5051054;28;20476;-64
2021/11/18 05:22:47;;;;;;;3.40;2.50;;;16.10;61.00;;;;;;5053051;28;20179;-66
2021/11/18 05:25:13;;;;;;;2.28;2.05;;;16.10;61.00;;;;;;5054665;28;20229;-66
2021/11/18 05:27:39;;;;;;;2.72;2.03;;;16.10;61.00;;;;;;5053548;28;20215;-66
2021/11/18 05:30:06;;;;;;;3.63;2.35;;;16.10;61.10;;;;;;5054410;28;20675;-65
2021/11/18 05:32:31;;;;;;;3.08;2.38;;;16.10;61.10;;;;;;5054529;28;20186;-64
2021/11/18 05:34:59;;;;;;;3.13;2.28;;;16.00;61.00;;;;;;5053783;28;20654;-64
2021/11/18 05:37:25;;;;;;;3.85;2.30;;;16.10;61.20;;;;;;5054538;28;20176;-63
2021/11/18 05:39:50;;;;;;;3.30;2.15;;;16.10;61.10;;;;;;5054039;28;20194;-65
2021/11/18 05:42:16;;;;;;;3.03;2.40;;;16.00;61.00;;;;;;5053552;28;20523;-64
2021/11/18 05:44:42;;;;;;;3.95;2.22;;;16.00;61.00;;;;;;5054077;28;20235;-64
2021/11/18 05:47:07;;;;;;;4.35;2.35;;;16.00;61.00;;;;;;5053931;28;20261;-63
2021/11/18 05:49:33;;;;;;;4.03;2.45;;;16.10;61.10;;;;;;5053581;28;20182;-64
2021/11/18 05:51:58;;;;;;;3.60;2.00;;;16.00;61.10;;;;;;5054310;28;20595;-64
2021/11/18 05:54:24;;;;;;;4.15;2.50;;;16.00;61.10;;;;;;5053538;28;20182;-64
2021/11/18 05:56:49;;;;;;;5.13;3.03;;;16.00;61.10;;;;;;5053703;28;20203;-66
2021/11/18 05:59:15;;;;;;;3.08;2.25;;;16.00;61.10;;;;;;5054264;28;20289;-64
2021/11/18 06:01:41;;;;;;;4.45;2.80;;;16.00;61.10;;;;;;5052975;28;20175;-65
2021/11/18 06:04:06;;;;;;;2.42;2.13;;;16.00;61.10;;;;;;5053968;28;20179;-63
2021/11/18 06:06:32;;;;;;;3.20;2.50;;;16.00;61.10;;;;;;5053552;28;20620;-63
2021/11/18 06:09:06;;;;;;;2.90;2.03;;;16.00;61.10;;;;;;5053195;28;20213;-63
2021/11/18 06:11:33;;;;;;;2.92;2.38;;;16.00;61.20;;;;;;5053566;28;20178;-64
2021/11/18 06:13:59;;;;;;;3.05;2.30;;;16.00;61.10;;;;;;5053823;28;20609;-65
2021/11/18 06:16:27;;;;;;;3.42;2.78;;;15.90;61.10;;;;;;5053404;28;20167;-65
2021/11/18 06:18:54;;;;;;;3.22;2.22;;;16.00;61.20;;;;;;5053571;28;20175;-66
2021/11/18 06:21:20;;;;;;;2.78;2.35;;;16.00;61.10;;;;;;5053771;28;20186;-65
2021/11/18 06:23:46;;;;;;;3.80;2.38;;;15.90;61.10;;;;;;5052620;28;20657;-66
2021/11/18 06:26:13;;;;;;;3.22;2.17;;;16.00;61.20;;;;;;5053541;28;20175;-65
2021/11/18 06:28:39;;;;;;;4.93;2.33;;;15.90;61.10;;;;;;5053454;28;20175;-64
2021/11/18 06:31:07;;;;;;;4.00;2.50;;;15.90;61.10;;;;;;5053009;28;20170;-63
2021/11/18 06:33:32;;;;;;;2.40;2.03;;;15.90;61.10;;;;;;5053002;28;20183;-64
2021/11/18 06:35:58;;;;;;;4.13;2.03;;;15.90;61.10;;;;;;5053446;28;20175;-63
2021/11/18 06:38:23;;;;;;;2.75;2.20;;;15.90;61.20;;;;;;5052639;28;20171;-64
2021/11/18 06:40:49;;;;;;;2.80;2.60;;;15.90;61.10;;;;;;5052912;28;20181;-65
2021/11/18 06:43:15;;;;;;;3.15;2.50;;;15.90;61.10;;;;;;5053544;28;20175;-64
2021/11/18 06:45:44;;;;;;;3.63;2.17;;;15.90;61.20;;;;;;5052130;28;20310;-64
2021/11/18 06:48:10;;;;;;;4.75;2.97;;;15.90;61.20;;;;;;5053067;28;20207;-63
2021/11/18 06:50:35;;;;;;;3.28;2.28;;;15.90;61.10;;;;;;5052169;28;20171;-63
2021/11/18 06:53:01;;;;;;;4.85;2.20;;;15.90;61.20;;;;;;5053012;28;20178;-64
2021/11/18 06:55:26;;;;;;;3.30;2.67;;;15.90;61.20;;;;;;5052878;28;20171;-65
2021/11/18 06:57:52;;;;;;;4.05;2.65;;;15.90;61.20;;;;;;5051805;28;20183;-65
2021/11/18 07:00:18;;;;;;;3.00;1.95;;;15.90;61.20;;;;;;5052785;28;20205;-64
2021/11/18 07:02:43;;;;;;;4.40;2.50;;;15.90;61.20;;;;;;5052376;28;20202;-64
2021/11/18 07:05:09;;;;;;;2.80;2.25;;;16.00;61.20;;;;;;5052019;28;20546;-62
2021/11/18 07:07:34;;;;;;;4.40;2.50;;;16.00;61.20;;;;;;5052181;28;20199;-62
2021/11/18 07:10:01;;;;;;;4.50;2.90;;;16.00;61.30;;;;;;5052408;28;20171;-63
2021/11/18 07:12:27;;;;;;;3.63;2.75;;;16.10;61.20;;;;;;5052111;28;20516;-64
2021/11/18 07:14:53;;;;;;;2.47;2.28;;;16.20;61.10;;;;;;5052554;28;20235;-64
2021/11/18 07:17:18;;;;;;;4.25;2.13;;;16.30;60.80;;;;;;5052534;28;20187;-63
2021/11/18 07:19:44;;;;;;;4.18;2.53;;;16.40;60.70;;;;;;5051527;28;20638;-65
2021/11/18 07:22:09;;;;;;;4.22;2.35;;;16.50;60.40;;;;;;5052475;28;20198;-64
2021/11/18 07:24:35;;;;;;;5.70;2.80;;;16.60;60.50;;;;;;5051998;28;20543;-63
2021/11/18 07:27:02;;;;;;;3.20;1.92;;;16.70;60.30;;;;;;5051527;28;20340;-64
2021/11/18 07:29:27;;;;;;;3.28;2.28;;;16.80;59.90;;;;;;5052466;28;20201;-64
2021/11/18 07:31:53;;;;;;;3.88;2.67;;;17.00;59.70;;;;;;5052339;28;20195;-63
2021/11/18 07:34:18;;;;;;;4.40;2.42;;;17.20;59.60;;;;;;5051430;28;20171;-63
2021/11/18 07:36:45;;;;;;;3.65;2.30;;;17.40;59.20;;;;;;5051867;28;20695;-64
2021/11/18 07:39:11;;;;;;;3.13;2.08;;;17.80;58.70;;;;;;5052028;28;20185;-66
2021/11/18 07:41:37;;;;;;;5.25;2.53;;;18.10;58.10;;;;;;5050918;28;20175;-72
2021/11/18 07:44:02;;;;;;;4.28;2.30;;;18.40;57.60;;;;;;5051946;28;20179;-67
2021/11/18 07:46:28;;;;;;;3.55;2.40;;;18.50;57.40;;;;;;5051308;28;20275;-67
2021/11/18 07:48:53;;;;;;;3.65;2.85;;;18.60;57.00;;;;;;5050896;28;20179;-70
2021/11/18 07:51:20;;;;;;;5.13;2.33;;;18.70;56.90;;;;;;5051768;28;20167;-67
2021/11/18 07:53:46;;;;;;;4.13;2.38;;;18.80;57.10;;;;;;5050749;28;20179;-67
2021/11/18 07:56:11;;;;;;;6.10;2.65;;;18.80;57.00;;;;;;5051712;28;20664;-67
2021/11/18 07:58:37;;;;;;;5.68;2.28;;;18.80;57.20;;;;;;5051731;28;20175;-67
2021/11/18 08:01:03;;;;;;;7.93;2.70;;;18.80;57.20;;;;;;5051187;28;20175;-67
2021/11/18 08:03:30;;;;;;;6.03;2.53;;;18.80;57.30;;;;;;5051614;28;20181;-67
2021/11/18 08:05:56;;;;;;;5.20;2.58;;;18.80;57.40;;;;;;5051719;28;20206;-67
2021/11/18 08:08:22;;;;;;;6.97;2.35;;;18.70;57.50;;;;;;5051000;28;20226;-68
2021/11/18 08:10:47;;;;;;;5.63;2.67;;;18.70;57.60;;;;;;5051301;28;20856;-66
2021/11/18 08:13:13;;;;;;;5.18;2.90;;;18.80;57.70;;;;;;5051685;28;20175;-66
2021/11/18 08:15:38;;;;;;;7.10;2.60;;;18.80;57.60;;;;;;5050709;28;20175;-66
2021/11/18 08:18:04;;;;;;;5.22;2.30;;;18.90;57.50;;;;;;5051600;28;20258;-66
2021/11/18 08:20:29;;;;;;;3.13;1.95;;;18.90;57.50;;;;;;5051119;28;20195;-66
2021/11/18 08:22:55;;;;;;;4.82;2.28;;;18.90;57.50;;;;;;5050835;28;20177;-66
2021/11/18 08:25:23;;;;;;;5.53;2.17;;;18.90;57.60;;;;;;5051431;28;20507;-65
2021/11/18 08:27:48;;;;;;;2.97;2.40;;;18.90;57.60;;;;;;5051190;28;20229;-66
2021/11/18 08:30:19;;;;;;;7.68;2.88;;;18.90;57.60;;;;;;5050595;28;20262;-65
2021/11/18 08:32:46;;;;;;;5.60;2.75;;;18.90;57.80;;;;;;5051087;28;20186;-66
2021/11/18 08:35:12;;;;;;;7.13;2.80;;;18.70;58.10;;;;;;5050860;28;20183;-67
2021/11/18 08:37:38;;;;;;;4.90;2.28;;;18.60;58.30;;;;;;5050340;28;20274;-68
2021/11/18 08:40:05;;;;;;;4.55;2.80;;;18.60;58.40;;;;;;5051196;28;20250;-67
2021/11/18 08:42:30;;;;;;;6.00;2.60;;;18.50;58.70;;;;;;5050726;28;20251;-65
2021/11/18 08:44:56;;;;;;;5.03;2.38;;;18.50;58.80;;;;;;5050235;28;20356;-65
2021/11/18 08:47:22;;;;;;;5.50;2.38;;;18.50;58.80;;;;;;5050750;28;20795;-64
2021/11/18 08:49:48;;;;;;;8.48;2.30;;;18.50;58.80;;;;;;5050094;28;20180;-65
2021/11/18 08:52:17;;;;;;;5.13;2.45;;;18.60;58.80;;;;;;5050607;28;20209;-66
2021/11/18 08:54:45;;;;;;;5.68;3.05;;;18.60;58.70;;;;;;5050898;28;20183;-65
2021/11/18 08:57:11;;;;;;;4.80;2.67;;;18.70;58.70;;;;;;5053465;28;20183;-67
2021/11/18 08:59:37;;;;;;;5.88;2.95;;;18.70;58.60;;;;;;5054661;28;20178;-67
2021/11/18 09:02:07;;;;;;;5.30;2.72;;;18.70;58.60;;;;;;5054949;28;20182;-67
2021/11/18 09:04:32;;;;;;;7.93;2.20;;;18.70;58.80;;;;;;5053750;28;20234;-63
2021/11/18 09:06:58;;;;;;;5.80;2.97;;;18.70;58.90;;;;;;5055069;28;20677;-70
2021/11/18 09:09:24;;;;;;;6.93;2.78;;;18.60;58.90;;;;;;5054897;28;20614;-61
2021/11/18 09:11:51;;;;;;;6.70;2.72;;;18.60;59.00;;;;;;5053746;28;20175;-66
2021/11/18 09:14:17;;;;;;;7.50;3.45;;;18.50;59.10;;;;;;5054881;28;20171;-64
2021/11/18 09:16:43;;;;;;;6.72;3.05;;;18.50;59.20;;;;;;5054481;28;20179;-65
2021/11/18 09:19:10;;;;;;;5.15;2.90;;;18.50;59.20;;;;;;5053837;28;20183;-65
2021/11/18 09:21:36;;;;;;;8.93;3.55;;;18.50;59.20;;;;;;5054380;28;20652;-64
2021/11/18 09:24:07;;;;;;;10.18;3.17;;;18.50;59.20;;;;;;5054500;28;20261;-65
2021/11/18 09:26:34;;;;;;;8.45;3.38;;;18.50;59.10;;;;;;5053481;28;20179;-64
2021/11/18 09:29:00;;;;;;;6.93;2.88;;;18.50;59.20;;;;;;5054528;28;20175;-64
2021/11/18 09:31:26;;;;;;;8.73;2.97;;;18.50;59.30;;;;;;5054389;28;20179;-65
2021/11/18 09:33:51;;;;;;;5.75;2.78;;;18.40;59.50;;;;;;5053495;28;20241;-65
2021/11/18 09:36:17;;;;;;;4.70;3.10;;;18.40;59.60;;;;;;5054465;28;20171;-66
2021/11/18 09:38:44;;;;;;;7.18;2.92;;;18.40;59.70;;;;;;5054226;28;20174;-66
2021/11/18 09:41:25;;;;;;;5.40;3.40;;;18.40;59.80;;;;;;5053846;28;20258;-66
2021/11/18 09:44:15;;;;;;;8.85;2.88;;;18.40;59.90;;;;;;5053768;28;20171;-64
2021/11/18 09:46:59;;;;;;;4.15;2.60;;;18.40;59.80;;;;;;5052982;28;20693;-64
2021/11/18 09:49:54;;;;;;;6.25;3.03;;;18.40;59.80;;;;;;5052898;28;20598;-66
2021/11/18 09:52:46;;;;;;;7.10;2.95;;;18.40;59.90;;;;;;5052791;28;20241;-65
2021/11/18 09:55:23;;;;;;;7.82;3.00;;;18.30;59.90;;;;;;5053622;28;20171;-66
2021/11/18 09:58:06;;;;;;;5.78;3.17;;;18.20;60.10;;;;;;5052317;28;20236;-68
2021/11/18 10:01:00;;;;;;;5.35;2.90;;;18.20;60.20;;;;;;5052827;28;20210;-68
2021/11/18 10:04:00;;;;;;;7.05;3.35;;;18.20;60.30;;;;;;5052883;28;20171;-67
2021/11/18 10:06:38;;;;;;;8.10;3.30;;;18.20;60.40;;;;;;5033115;28;20270;-65
2021/11/18 10:09:30;;;;;;;6.88;3.28;;;18.10;60.50;;;;;;5068058;28;20178;-66
2021/11/18 10:12:05;;;;;;;8.85;3.58;;;18.10;60.40;;;;;;5034092;28;20263;-65
2021/11/18 10:14:48;;;;;;;6.35;3.28;;;18.10;60.40;;;;;;5050856;28;20192;-65
2021/11/18 10:17:25;;;;;;;9.60;3.40;;;18.00;60.30;;;;;;5072291;28;20245;-65
2021/11/18 10:19:54;;;;;;;5.80;3.47;;;18.00;60.40;;;;;;5073234;28;20182;-65
2021/11/18 10:22:21;;;;;;;7.93;3.20;;;18.00;60.40;;;;;;5069628;28;20251;-65
2021/11/18 10:24:56;;;;;;;6.75;3.40;;;17.90;60.40;;;;;;5053404;28;20190;-65
2021/11/18 10:27:52;;;;;;;8.07;3.78;;;17.90;60.50;;;;;;5053447;28;20211;-65
2021/11/18 10:30:44;;;;;;;5.82;3.20;;;17.90;60.50;;;;;;5052586;28;20621;-65
2021/11/18 10:33:13;;;;;;;4.53;2.97;;;17.90;60.50;;;;;;5053494;28;20206;-66
2021/11/18 10:36:07;;;;;;;5.82;3.25;;;17.90;60.50;;;;;;5051371;28;20618;-67
2021/11/18 10:38:33;;;;;;;4.63;2.70;;;17.90;60.40;;;;;;5051638;28;20200;-66
2021/11/18 10:41:03;;;;;;;4.18;2.88;;;17.90;60.30;;;;;;5069334;28;20248;-66
2021/11/18 10:43:34;;;;;;;7.38;3.22;;;17.90;60.20;;;;;;5072137;28;20236;-65
2021/11/18 10:46:11;;;;;;;6.43;3.55;;;18.00;60.30;;;;;;5071505;28;20233;-65
2021/11/18 10:48:43;;;;;;;7.10;3.65;;;17.90;60.30;;;;;;5072255;28;20224;-64
2021/11/18 10:51:13;;;;;;;7.85;3.30;;;17.90;60.30;;;;;;5072375;28;20257;-64
2021/11/18 10:53:47;;;;;;;5.70;2.92;;;17.90;60.40;;;;;;5072763;28;20281;-64
2021/11/18 10:56:19;;;;;;;10.13;3.88;;;17.80;60.40;;;;;;5072781;28;20269;-65
2021/11/18 10:59:00;;;;;;;5.95;3.38;;;17.80;60.60;;;;;;5070442;28;20189;-65
2021/11/18 11:01:26;;;;;;;5.53;3.00;;;17.80;60.80;;;;;;5072830;28;20170;-65
2021/11/18 11:03:57;;;;;;;11.20;3.70;;;17.80;60.90;;;;;;5072417;28;20193;-65
2021/11/18 11:06:25;;;;;;;7.65;3.53;;;17.80;60.80;;;;;;5072417;28;20190;-65
2021/11/18 11:08:56;;;;;;;10.77;3.72;;;17.80;61.10;;;;;;5072392;28;20178;-64
2021/11/18 11:11:40;;;;;;;9.30;3.95;;;17.80;61.20;;;;;;5070550;28;20181;-64
2021/11/18 11:14:26;;;;;;;8.90;3.90;;;17.80;61.20;;;;;;5064680;28;20274;-64
2021/11/18 11:17:13;;;;;;;8.70;3.50;;;17.70;61.20;;;;;;5036580;28;20194;-64
2021/11/18 11:20:03;;;;;;;8.35;3.47;;;17.80;61.10;;;;;;5050145;28;20175;-64
2021/11/18 11:22:55;;;;;;;5.70;3.42;;;17.80;61.00;;;;;;5051238;28;20517;-64
2021/11/18 11:25:57;;;;;;;5.65;3.38;;;17.80;60.90;;;;;;5050416;28;20569;-63
2021/11/18 11:28:56;;;;;;;6.70;3.08;;;17.80;60.90;;;;;;5051405;28;20253;-64
2021/11/18 11:31:42;;;;;;;6.72;3.53;;;17.90;60.90;;;;;;5053207;28;20547;-64
2021/11/18 11:34:39;;;;;;;7.95;3.88;;;17.90;60.90;;;;;;5050503;28;20186;-65
2021/11/18 11:37:04;;;;;;;7.45;3.63;;;17.90;60.80;;;;;;5036276;28;20254;-66
2021/11/18 11:39:37;;;;;;;8.40;3.60;;;17.90;60.80;;;;;;5051382;28;20258;-65
2021/11/18 11:42:22;;;;;;;6.05;3.38;;;18.00;60.80;;;;;;5034993;28;20576;-65
2021/11/18 11:45:00;;;;;;;6.28;3.22;;;18.00;60.80;;;;;;5050341;28;20246;-64
2021/11/18 11:47:49;;;;;;;8.80;3.92;;;17.90;60.80;;;;;;5050322;28;20240;-64
2021/11/18 11:50:48;;;;;;;8.15;3.42;;;18.00;60.90;;;;;;5052068;28;20635;-64
2021/11/18 11:53:27;;;;;;;5.68;3.45;;;17.90;60.80;;;;;;5051223;28;20228;-65
2021/11/18 11:56:04;;;;;;;10.65;3.50;;;17.90;60.90;;;;;;5034796;28;20167;-65
2021/11/18 11:58:58;;;;;;;6.72;3.28;;;17.90;61.00;;;;;;5051868;28;20159;-67
2021/11/18 12:01:51;;;;;;;7.63;3.38;;;17.90;61.00;;;;;;5049876;28;20179;-65
2021/11/18 12:04:21;;;;;;;7.57;3.38;;;17.90;60.90;;;;;;5051256;28;20175;-65
2021/11/18 12:07:08;;;;;;;7.18;3.30;;;17.90;60.90;;;;;;5051327;28;20207;-65
2021/11/18 12:09:55;;;;;;;10.45;4.18;;;17.90;60.80;;;;;;5049991;28;20218;-61
2021/11/18 12:12:49;;;;;;;7.57;4.18;;;17.90;60.80;;;;;;5051789;28;20178;-61
2021/11/18 12:15:17;;;;;;;9.52;3.85;;;17.90;60.80;;;;;;5067050;28;20257;-65
2021/11/18 12:18:04;;;;;;;10.68;4.18;;;17.90;60.80;;;;;;5071297;28;20166;-64
2021/11/18 12:20:34;;;;;;;10.07;4.28;;;17.90;60.80;;;;;;5069982;28;20185;-65
2021/11/18 12:23:05;;;;;;;12.25;4.88;;;17.90;60.70;;;;;;5070791;28;20174;-65
2021/11/18 12:25:32;;;;;;;9.38;3.95;;;17.90;60.80;;;;;;5071250;28;20162;-65
2021/11/18 12:28:24;;;;;;;7.20;3.88;;;17.90;60.80;;;;;;5071419;28;20300;-65
2021/11/18 12:30:57;;;;;;;8.75;3.80;;;17.90;60.80;;;;;;5061390;28;20224;-65
2021/11/18 12:33:23;;;;;;;14.15;4.78;;;17.90;60.80;;;;;;5074072;28;20652;-66
2021/11/18 12:36:25;;;;;;;11.85;4.82;;;17.90;60.90;;;;;;5074239;28;20231;-67
2021/11/18 12:39:27;;;;;;;6.85;3.85;;;17.90;60.90;;;;;;5073666;28;20180;-67
2021/11/18 12:42:12;;;;;;;9.75;3.95;;;17.90;60.80;;;;;;5074980;28;20174;-65
2021/11/18 12:45:09;;;;;;;9.80;5.07;;;17.90;60.70;;;;;;5074836;28;20158;-62
2021/11/18 12:47:41;;;;;;;12.10;4.22;;;17.90;60.70;;;;;;5074926;28;20308;-64
2021/11/18 12:50:41;;;;;;;10.98;4.10;;;17.90;60.70;;;;;;5075016;28;20175;-65
2021/11/18 12:53:12;;;;;;;12.43;4.57;;;17.90;60.80;;;;;;5073686;28;20186;-64
2021/11/18 12:56:04;;;;;;;11.25;3.97;;;17.90;60.80;;;;;;5074810;28;20265;-65
2021/11/18 12:58:32;;;;;;;9.40;3.80;;;17.90;60.90;;;;;;5074224;28;20265;-64